Seattle, Washington
Traffic Map
Current Weather Conditions
Seattle, Washington
Scattered Clouds
Scattered Clouds
59°
Feels Like: 59°
Wind Chill: 59° Ceiling: Unl
Heat Index: 59° Visibility: 10mi
Dew Point: 43° Wind: 3mph
Humidity: 55% Direction: 300° (WNW)
Pressure: 30.17in Gusts: 0mph
Raw Report DataKBFI 300253Z 30003KT 10SM SCT045 15/06 A3017 RMK AO2 SLP216 T01500061 51008 $
Traffic Incident Summary
Active as of:
Severity:
Category:
InformationThere was an issue retrieving the traffic information for this location. Please try a different location or try again shortly.
Advertisements
Track Severe Weather on mobile